Time;durP1;ratioP1;P1;durP2;ratioP2;P2;SDS_P1;SDS_P2;PMS_P1;PMS_P2;Temp;Humidity;BMP_temperature;BMP_pressure;BME280_temperature;BME280_humidity;BME280_pressure;Samples;Min_cycle;Max_cycle;Signal;HPM_P1;HPM_P2
2023/12/27 00:00:30;;;;;;;5.37;3.17;;;;;;;;;;4974911;28;20412;-74
2023/12/27 00:02:57;;;;;;;4.50;3.27;;;;;;;;;;4975098;28;20427;-73
2023/12/27 00:05:23;;;;;;;5.07;4.23;;;;;;;;;;4974948;28;20548;-74
2023/12/27 00:07:48;;;;;;;5.20;3.40;;;;;;;;;;4975067;28;20991;-74
2023/12/27 00:10:14;;;;;;;5.80;4.40;;;;;;;;;;4974907;28;20421;-74
2023/12/27 00:12:40;;;;;;;4.83;3.90;;;;;;;;;;4974914;28;20510;-73
2023/12/27 00:15:09;;;;;;;4.60;2.90;;;;;;;;;;4974775;28;20885;-73
2023/12/27 00:17:35;;;;;;;5.37;3.80;;;;;;;;;;4974771;28;20419;-73
2023/12/27 00:20:02;;;;;;;5.37;2.77;;;;;;;;;;4974608;28;20430;-76
2023/12/27 00:22:28;;;;;;;4.67;3.53;;;;;;;;;;4975174;28;20416;-74
2023/12/27 00:24:54;;;;;;;4.90;2.43;;;;;;;;;;4974717;28;20438;-74
2023/12/27 00:27:20;;;;;;;5.77;3.47;;;;;;;;;;4974786;28;20481;-73
2023/12/27 00:29:46;;;;;;;9.47;3.53;;;;;;;;;;4974105;28;20421;-75
2023/12/27 00:32:12;;;;;;;7.40;3.83;;;;;;;;;;4974642;28;20485;-72
2023/12/27 00:34:41;;;;;;;4.80;3.33;;;;;;;;;;4973350;28;20939;-73
2023/12/27 00:37:08;;;;;;;5.57;3.83;;;;;;;;;;4974315;28;20424;-71
2023/12/27 00:39:34;;;;;;;7.13;3.40;;;;;;;;;;4972473;28;20434;-72
2023/12/27 00:42:03;;;;;;;3.50;2.90;;;;;;;;;;4974253;28;20420;-71
2023/12/27 00:44:29;;;;;;;5.93;3.13;;;;;;;;;;4974287;28;20413;-72
2023/12/27 00:46:56;;;;;;;4.33;2.90;;;;;;;;;;4972885;28;20471;-72
2023/12/27 00:49:22;;;;;;;4.57;3.03;;;;;;;;;;4974081;28;20423;-72
2023/12/27 00:51:48;;;;;;;7.87;4.13;;;;;;;;;;4972837;28;20482;-74
2023/12/27 00:54:14;;;;;;;4.10;3.27;;;;;;;;;;4973078;28;20507;-73
2023/12/27 00:56:40;;;;;;;3.83;2.70;;;;;;;;;;4974040;28;20440;-72
2023/12/27 00:59:06;;;;;;;6.00;3.67;;;;;;;;;;4974065;28;20413;-72
2023/12/27 01:01:32;;;;;;;6.63;3.27;;;;;;;;;;4974049;28;20778;-72
2023/12/27 01:03:58;;;;;;;4.90;3.23;;;;;;;;;;4973928;28;20416;-74
2023/12/27 01:06:24;;;;;;;6.27;3.50;;;;;;;;;;5018694;23;20592;-69
2023/12/27 01:08:50;;;;;;;3.70;2.70;;;;;;;;;;5012766;28;20441;-69
2023/12/27 01:11:17;;;;;;;6.00;4.20;;;;;;;;;;5011845;28;20422;-69
2023/12/27 01:13:43;;;;;;;6.03;3.50;;;;;;;;;;5012526;28;20468;-69
2023/12/27 01:16:09;;;;;;;6.00;4.00;;;;;;;;;;5012120;28;20485;-69
2023/12/27 01:18:34;;;;;;;5.80;3.00;;;;;;;;;;5012624;28;20422;-69
2023/12/27 01:21:00;;;;;;;7.17;3.40;;;;;;;;;;5012289;28;20426;-69
2023/12/27 01:23:27;;;;;;;6.17;4.10;;;;;;;;;;5011690;28;20461;-69
2023/12/27 01:25:53;;;;;;;5.20;3.00;;;;;;;;;;5010998;28;20442;-68
2023/12/27 01:28:19;;;;;;;4.77;2.80;;;;;;;;;;5012366;28;20565;-69
2023/12/27 01:30:45;;;;;;;3.63;2.13;;;;;;;;;;5012257;28;20426;-69
2023/12/27 01:33:11;;;;;;;4.57;2.67;;;;;;;;;;5012202;28;20473;-69
2023/12/27 01:35:37;;;;;;;5.80;3.00;;;;;;;;;;5012145;28;20463;-68
2023/12/27 01:38:03;;;;;;;5.17;3.23;;;;;;;;;;5012274;28;20779;-68
2023/12/27 01:40:30;;;;;;;6.00;2.70;;;;;;;;;;5010703;28;20430;-69
2023/12/27 01:42:56;;;;;;;5.13;2.87;;;;;;;;;;5012628;28;20449;-70
2023/12/27 01:45:21;;;;;;;4.80;2.90;;;;;;;;;;5012036;28;21833;-69
2023/12/27 01:47:48;;;;;;;4.00;3.10;;;;;;;;;;5011151;28;20815;-69
2023/12/27 01:50:14;;;;;;;7.27;2.53;;;;;;;;;;5012035;28;20784;-68
2023/12/27 01:52:40;;;;;;;3.30;1.93;;;;;;;;;;5012107;28;20457;-69
2023/12/27 01:55:09;;;;;;;5.60;3.40;;;;;;;;;;5012053;28;20407;-69
2023/12/27 01:57:35;;;;;;;3.97;2.67;;;;;;;;;;5012040;28;20484;-68
2023/12/27 02:00:01;;;;;;;5.03;2.70;;;;;;;;;;5011751;28;20912;-68
2023/12/27 02:02:27;;;;;;;3.80;2.90;;;;;;;;;;5012259;28;20412;-68
2023/12/27 02:04:53;;;;;;;4.23;2.77;;;;;;;;;;5012607;28;20424;-69
2023/12/27 02:07:19;;;;;;;3.00;1.93;;;;;;;;;;5011617;28;20514;-68
2023/12/27 02:09:45;;;;;;;4.13;1.67;;;;;;;;;;5011900;28;20460;-68
2023/12/27 02:12:23;;;;;;;4.67;2.73;;;;;;;;;;5012154;28;20472;-69
2023/12/27 02:14:48;;;;;;;7.10;3.40;;;;;;;;;;5011924;28;20837;-68
2023/12/27 02:17:15;;;;;;;3.50;2.37;;;;;;;;;;5011792;28;20519;-69
2023/12/27 02:19:41;;;;;;;4.37;2.50;;;;;;;;;;5011668;28;20415;-68
2023/12/27 02:22:07;;;;;;;2.80;1.97;;;;;;;;;;5011781;28;20607;-68
2023/12/27 02:24:35;;;;;;;3.63;2.30;;;;;;;;;;5011806;28;20431;-68
2023/12/27 02:27:01;;;;;;;3.60;2.47;;;;;;;;;;5010398;28;20441;-69
2023/12/27 02:29:27;;;;;;;3.67;1.93;;;;;;;;;;5011423;28;20424;-69
2023/12/27 02:31:53;;;;;;;4.83;2.40;;;;;;;;;;5011616;28;20826;-67
2023/12/27 02:34:19;;;;;;;2.53;1.63;;;;;;;;;;5011684;28;20754;-69
2023/12/27 02:36:45;;;;;;;4.20;2.40;;;;;;;;;;5011546;28;20455;-68
2023/12/27 02:39:11;;;;;;;5.27;2.33;;;;;;;;;;5011650;28;20880;-68
2023/12/27 02:41:39;;;;;;;2.77;1.83;;;;;;;;;;5011695;28;20413;-68
2023/12/27 02:44:05;;;;;;;5.27;2.43;;;;;;;;;;5011541;28;20777;-68
2023/12/27 02:46:34;;;;;;;3.77;1.70;;;;;;;;;;5011520;28;20543;-69
2023/12/27 02:49:00;;;;;;;4.00;2.13;;;;;;;;;;5010305;28;20427;-69
2023/12/27 02:51:26;;;;;;;4.30;2.30;;;;;;;;;;5011247;28;20498;-68
2023/12/27 02:53:52;;;;;;;3.77;1.67;;;;;;;;;;5011567;28;20497;-69
2023/12/27 02:56:18;;;;;;;5.20;2.07;;;;;;;;;;5010174;28;20432;-69
2023/12/27 02:58:44;;;;;;;3.67;2.47;;;;;;;;;;5011475;28;20413;-68
2023/12/27 03:01:10;;;;;;;3.53;1.90;;;;;;;;;;5011430;28;20762;-69
2023/12/27 03:03:36;;;;;;;2.27;1.50;;;;;;;;;;5011539;28;20511;-69
2023/12/27 03:06:02;;;;;;;2.87;1.67;;;;;;;;;;5011220;28;20451;-69
2023/12/27 03:08:28;;;;;;;2.33;1.53;;;;;;;;;;5011583;28;20409;-69
2023/12/27 03:10:55;;;;;;;2.93;1.47;;;;;;;;;;5009809;28;20444;-68
2023/12/27 03:13:21;;;;;;;2.70;1.47;;;;;;;;;;5011310;28;21029;-68
2023/12/27 03:15:47;;;;;;;2.37;1.47;;;;;;;;;;5011289;28;20477;-68
2023/12/27 03:18:14;;;;;;;4.97;2.10;;;;;;;;;;5012694;28;20409;-69
2023/12/27 03:20:40;;;;;;;3.23;1.50;;;;;;;;;;5014609;28;20410;-69
2023/12/27 03:23:06;;;;;;;3.60;1.83;;;;;;;;;;5014797;28;20416;-69
2023/12/27 03:25:32;;;;;;;3.13;1.60;;;;;;;;;;5014667;28;20435;-69
2023/12/27 03:27:58;;;;;;;2.97;1.83;;;;;;;;;;5014683;28;20430;-69
2023/12/27 03:30:24;;;;;;;2.80;1.73;;;;;;;;;;5014420;28;20417;-69
2023/12/27 03:32:49;;;;;;;3.70;2.60;;;;;;;;;;5014473;28;20475;-69
2023/12/27 03:35:15;;;;;;;5.13;2.40;;;;;;;;;;5014427;28;20483;-69
2023/12/27 03:37:41;;;;;;;2.80;1.60;;;;;;;;;;5014515;28;20466;-69
2023/12/27 03:40:08;;;;;;;3.50;1.67;;;;;;;;;;5014245;28;20413;-69
2023/12/27 03:42:34;;;;;;;2.23;1.47;;;;;;;;;;5014301;28;20423;-69
2023/12/27 03:45:00;;;;;;;3.77;1.70;;;;;;;;;;5013123;28;20448;-69
2023/12/27 03:47:26;;;;;;;2.87;1.70;;;;;;;;;;5014101;28;20780;-69
2023/12/27 03:49:52;;;;;;;3.87;2.00;;;;;;;;;;5014070;28;20412;-69
2023/12/27 03:52:18;;;;;;;2.90;1.53;;;;;;;;;;5014045;28;20478;-69
2023/12/27 03:54:44;;;;;;;4.27;2.67;;;;;;;;;;5014205;28;20504;-70
2023/12/27 03:57:10;;;;;;;3.20;1.90;;;;;;;;;;5013993;28;20494;-69
2023/12/27 03:59:39;;;;;;;2.97;1.83;;;;;;;;;;5013865;28;20412;-70
2023/12/27 04:02:05;;;;;;;3.10;1.37;;;;;;;;;;5013939;28;20451;-69
2023/12/27 04:04:31;;;;;;;3.70;2.20;;;;;;;;;;5014093;28;20461;-70
2023/12/27 04:06:57;;;;;;;2.73;2.10;;;;;;;;;;5013812;28;20451;-70
2023/12/27 04:09:23;;;;;;;3.30;2.17;;;;;;;;;;5013588;28;20496;-69
2023/12/27 04:11:49;;;;;;;4.93;1.87;;;;;;;;;;5013664;28;20551;-69
2023/12/27 04:14:16;;;;;;;3.20;1.63;;;;;;;;;;5013667;28;20462;-69
2023/12/27 04:16:41;;;;;;;4.20;2.33;;;;;;;;;;5013599;28;20442;-69
2023/12/27 04:19:07;;;;;;;5.53;1.90;;;;;;;;;;5013666;28;20427;-69
2023/12/27 04:21:34;;;;;;;3.77;2.87;;;;;;;;;;5013646;28;20810;-69
2023/12/27 04:23:59;;;;;;;6.70;1.80;;;;;;;;;;5012217;28;20423;-69
2023/12/27 04:26:25;;;;;;;3.30;2.13;;;;;;;;;;5013282;28;20427;-70
2023/12/27 04:28:51;;;;;;;3.13;2.00;;;;;;;;;;5011822;28;20434;-70
2023/12/27 04:31:17;;;;;;;2.13;1.13;;;;;;;;;;5013129;28;20555;-70
2023/12/27 04:33:43;;;;;;;3.33;2.20;;;;;;;;;;5013316;28;20861;-70
2023/12/27 04:36:09;;;;;;;3.33;1.70;;;;;;;;;;5013440;28;20524;-70
2023/12/27 04:38:35;;;;;;;5.60;1.93;;;;;;;;;;5013271;28;20529;-70
2023/12/27 04:41:06;;;;;;;3.60;2.13;;;;;;;;;;5013064;28;20615;-70
2023/12/27 04:43:32;;;;;;;4.00;2.73;;;;;;;;;;5013272;28;20415;-70
2023/12/27 04:45:58;;;;;;;3.07;2.37;;;;;;;;;;5011773;28;20909;-70
2023/12/27 04:48:24;;;;;;;4.17;2.23;;;;;;;;;;5011849;28;20433;-71
2023/12/27 04:50:50;;;;;;;3.63;2.20;;;;;;;;;;5013156;28;20434;-70
2023/12/27 04:53:16;;;;;;;4.17;2.50;;;;;;;;;;5013216;28;20472;-69
2023/12/27 04:55:43;;;;;;;3.70;2.53;;;;;;;;;;5012977;28;20445;-69
2023/12/27 04:58:09;;;;;;;4.23;2.00;;;;;;;;;;5013094;28;20494;-69
2023/12/27 05:00:34;;;;;;;3.73;2.77;;;;;;;;;;5012709;28;20909;-68
2023/12/27 05:03:00;;;;;;;7.50;2.93;;;;;;;;;;5013129;28;20824;-69
2023/12/27 05:05:26;;;;;;;3.43;2.40;;;;;;;;;;5012875;28;20960;-69
2023/12/27 05:07:52;;;;;;;5.63;2.50;;;;;;;;;;5013068;28;20426;-69
2023/12/27 05:10:18;;;;;;;4.60;2.40;;;;;;;;;;5012570;28;20418;-69
2023/12/27 05:12:44;;;;;;;2.70;1.93;;;;;;;;;;5012666;28;20631;-68
2023/12/27 05:15:10;;;;;;;3.60;2.37;;;;;;;;;;5012624;28;20406;-69
2023/12/27 05:17:36;;;;;;;4.17;2.50;;;;;;;;;;5012691;28;20410;-69
2023/12/27 05:20:03;;;;;;;2.43;2.00;;;;;;;;;;5012132;28;20445;-70
2023/12/27 05:22:33;;;;;;;4.77;1.93;;;;;;;;;;5012974;28;20473;-69
2023/12/27 05:24:59;;;;;;;4.43;2.33;;;;;;;;;;5012478;28;20430;-69
2023/12/27 05:27:25;;;;;;;7.37;2.23;;;;;;;;;;5012880;28;20196;-69
2023/12/27 05:29:51;;;;;;;3.20;1.73;;;;;;;;;;5012664;28;20449;-70
2023/12/27 05:32:17;;;;;;;3.97;2.47;;;;;;;;;;5012519;28;20472;-70
2023/12/27 05:34:44;;;;;;;3.70;2.40;;;;;;;;;;5012464;28;20483;-69
2023/12/27 05:37:10;;;;;;;3.50;2.33;;;;;;;;;;5011151;28;20438;-70
2023/12/27 05:39:36;;;;;;;6.07;3.10;;;;;;;;;;5011949;28;20232;-69
2023/12/27 05:42:02;;;;;;;3.88;2.10;;;;;;;;;;5011683;28;20422;-68
2023/12/27 05:44:28;;;;;;;3.83;2.07;;;;;;;;;;5012236;28;20190;-69
2023/12/27 05:46:53;;;;;;;5.40;1.70;;;;;;;;;;5012109;28;20441;-70
2023/12/27 05:49:19;;;;;;;4.60;2.10;;;;;;;;;;5010889;28;20430;-71
2023/12/27 05:51:45;;;;;;;4.13;1.93;;;;;;;;;;5012169;28;20433;-69
2023/12/27 05:54:13;;;;;;;6.93;2.20;;;;;;;;;;5012246;28;20450;-71
2023/12/27 05:56:39;;;;;;;3.40;2.25;;;;;;;;;;5013472;28;20442;-72
2023/12/27 05:59:06;;;;;;;7.20;2.13;;;;;;;;;;5012026;28;20179;-70
2023/12/27 06:01:32;;;;;;;5.20;2.80;;;;;;;;;;5012898;28;20403;-71
2023/12/27 06:03:59;;;;;;;4.80;2.03;;;;;;;;;;5013098;28;20978;-71
2023/12/27 06:06:25;;;;;;;4.60;2.23;;;;;;;;;;5012890;28;20446;-71
2023/12/27 06:08:51;;;;;;;3.40;1.90;;;;;;;;;;5013036;28;20889;-69
2023/12/27 06:11:17;;;;;;;6.27;3.07;;;;;;;;;;5012836;28;20409;-71
2023/12/27 06:13:43;;;;;;;3.63;2.10;;;;;;;;;;5012738;28;20484;-70
2023/12/27 06:16:09;;;;;;;4.00;2.23;;;;;;;;;;5012757;28;20513;-69
2023/12/27 06:18:35;;;;;;;3.77;2.87;;;;;;;;;;5012744;28;20414;-70
2023/12/27 06:21:01;;;;;;;4.10;2.53;;;;;;;;;;5012732;28;20410;-70
2023/12/27 06:23:28;;;;;;;6.50;2.90;;;;;;;;;;5013253;28;20425;-70
2023/12/27 06:25:55;;;;;;;4.63;2.80;;;;;;;;;;5014186;28;20449;-70
2023/12/27 06:28:21;;;;;;;4.70;3.17;;;;;;;;;;5012494;28;20194;-70
2023/12/27 06:30:47;;;;;;;5.87;2.77;;;;;;;;;;5011804;28;20263;-69
2023/12/27 06:33:13;;;;;;;3.70;2.87;;;;;;;;;;5011682;28;20461;-71
2023/12/27 06:35:39;;;;;;;8.10;3.17;;;;;;;;;;5011622;28;20494;-72
2023/12/27 06:38:05;;;;;;;3.87;2.97;;;;;;;;;;5011564;28;20925;-69
2023/12/27 06:40:31;;;;;;;4.20;3.03;;;;;;;;;;5011435;28;20448;-69
2023/12/27 06:42:57;;;;;;;4.97;2.50;;;;;;;;;;5011661;28;20456;-69
2023/12/27 06:45:23;;;;;;;4.50;2.20;;;;;;;;;;5011575;28;20225;-70
2023/12/27 06:47:49;;;;;;;3.50;1.90;;;;;;;;;;5011570;28;20448;-69
2023/12/27 06:50:15;;;;;;;5.97;2.03;;;;;;;;;;5011373;28;20486;-68
2023/12/27 06:52:41;;;;;;;5.30;2.03;;;;;;;;;;5013642;28;20458;-68
2023/12/27 06:55:07;;;;;;;5.33;1.90;;;;;;;;;;5015050;28;20434;-68
2023/12/27 06:57:33;;;;;;;4.83;2.50;;;;;;;;;;5015270;28;20492;-69
2023/12/27 06:59:59;;;;;;;4.27;2.60;;;;;;;;;;5014956;28;20442;-69
2023/12/27 07:02:25;;;;;;;9.00;3.30;;;;;;;;;;5015257;28;20418;-69
2023/12/27 07:04:51;;;;;;;5.00;2.27;;;;;;;;;;5015114;28;20415;-69
2023/12/27 07:07:17;;;;;;;9.60;3.70;;;;;;;;;;5015196;28;20929;-70
2023/12/27 07:09:43;;;;;;;5.40;1.80;;;;;;;;;;5015254;28;20417;-70
2023/12/27 07:12:09;;;;;;;4.77;2.50;;;;;;;;;;5015208;28;20512;-70
2023/12/27 07:14:35;;;;;;;6.47;2.53;;;;;;;;;;5015348;28;20399;-71
2023/12/27 07:17:04;;;;;;;3.90;2.80;;;;;;;;;;5015407;28;20450;-72
2023/12/27 07:19:30;;;;;;;2.90;2.00;;;;;;;;;;5015703;28;20411;-69
2023/12/27 07:21:57;;;;;;;3.43;2.50;;;;;;;;;;5015582;28;20425;-70
2023/12/27 07:24:23;;;;;;;3.43;1.50;;;;;;;;;;5014098;28;20462;-71
2023/12/27 07:26:50;;;;;;;6.63;2.20;;;;;;;;;;5015293;28;20450;-73
2023/12/27 07:29:16;;;;;;;5.47;2.70;;;;;;;;;;5014414;28;20411;-72
2023/12/27 07:31:43;;;;;;;3.57;2.23;;;;;;;;;;5012988;28;20427;-69
2023/12/27 07:34:10;;;;;;;3.87;2.13;;;;;;;;;;5014512;28;20415;-72
2023/12/27 07:36:36;;;;;;;4.63;2.43;;;;;;;;;;5014403;28;20567;-69
2023/12/27 07:39:05;;;;;;;5.20;2.53;;;;;;;;;;5014361;28;20914;-69
2023/12/27 07:41:32;;;;;;;3.57;2.57;;;;;;;;;;5014348;28;20486;-69
2023/12/27 07:43:58;;;;;;;4.83;2.77;;;;;;;;;;5014222;28;20407;-69
2023/12/27 07:46:24;;;;;;;4.00;2.23;;;;;;;;;;5014407;28;20783;-70
2023/12/27 07:48:50;;;;;;;5.23;2.40;;;;;;;;;;5014202;28;20412;-71
2023/12/27 07:51:16;;;;;;;4.07;2.40;;;;;;;;;;5014340;28;20910;-72
2023/12/27 07:53:42;;;;;;;6.63;2.93;;;;;;;;;;5015713;28;20472;-70
2023/12/27 07:56:09;;;;;;;9.13;3.00;;;;;;;;;;5013993;28;20474;-70
2023/12/27 07:58:35;;;;;;;5.40;2.43;;;;;;;;;;5013824;28;20411;-69
2023/12/27 08:01:01;;;;;;;4.63;2.90;;;;;;;;;;5013915;28;20956;-70
2023/12/27 08:03:27;;;;;;;5.17;3.03;;;;;;;;;;5007583;28;20468;-71
2023/12/27 08:05:53;;;;;;;6.03;2.57;;;;;;;;;;5010971;28;20478;-70
2023/12/27 08:08:19;;;;;;;3.13;2.57;;;;;;;;;;5013237;28;20913;-69
2023/12/27 08:10:45;;;;;;;8.20;3.40;;;;;;;;;;4997808;28;20415;-72
2023/12/27 08:13:11;;;;;;;4.30;2.30;;;;;;;;;;5009471;28;20526;-71
2023/12/27 08:15:37;;;;;;;4.10;2.80;;;;;;;;;;5007629;28;20427;-69
2023/12/27 08:18:06;;;;;;;3.40;2.77;;;;;;;;;;5013436;28;20407;-70
2023/12/27 08:20:32;;;;;;;8.43;2.83;;;;;;;;;;5012025;28;20415;-69
2023/12/27 08:22:58;;;;;;;6.10;2.63;;;;;;;;;;4998279;28;20438;-68
2023/12/27 08:25:24;;;;;;;5.17;3.33;;;;;;;;;;4994327;28;20787;-69
2023/12/27 08:27:50;;;;;;;4.60;3.20;;;;;;;;;;5009306;28;20431;-69
2023/12/27 08:30:16;;;;;;;3.43;2.80;;;;;;;;;;5006411;28;20419;-69
2023/12/27 08:32:42;;;;;;;7.37;2.73;;;;;;;;;;5013308;28;20458;-69
2023/12/27 08:35:08;;;;;;;4.60;2.77;;;;;;;;;;5013016;28;20420;-73
2023/12/27 08:37:34;;;;;;;3.83;3.00;;;;;;;;;;5013579;28;20411;-71
2023/12/27 08:40:00;;;;;;;5.77;3.63;;;;;;;;;;5013069;28;20412;-70
2023/12/27 08:42:26;;;;;;;5.00;3.40;;;;;;;;;;5012964;28;20449;-70
2023/12/27 08:44:52;;;;;;;7.37;3.40;;;;;;;;;;5013497;28;20435;-69
2023/12/27 08:47:18;;;;;;;8.53;3.30;;;;;;;;;;5013371;28;20427;-69
2023/12/27 08:49:44;;;;;;;7.60;3.83;;;;;;;;;;5012602;28;20490;-70
2023/12/27 08:52:10;;;;;;;7.23;4.33;;;;;;;;;;5013474;28;20550;-70
2023/12/27 08:54:36;;;;;;;7.73;4.03;;;;;;;;;;5013349;28;20405;-69
2023/12/27 08:57:02;;;;;;;7.60;5.43;;;;;;;;;;5001114;28;20954;-69
2023/12/27 08:59:28;;;;;;;6.60;5.53;;;;;;;;;;4998504;28;20409;-69
2023/12/27 09:01:54;;;;;;;10.20;5.27;;;;;;;;;;5011484;28;20819;-70
2023/12/27 09:04:20;;;;;;;5.80;4.50;;;;;;;;;;5030001;28;20885;-70
2023/12/27 09:06:46;;;;;;;6.93;5.27;;;;;;;;;;5030752;28;20459;-70
2023/12/27 09:09:12;;;;;;;7.43;4.50;;;;;;;;;;5011872;28;20423;-69
2023/12/27 09:11:38;;;;;;;8.60;5.97;;;;;;;;;;5011896;28;20930;-69
2023/12/27 09:14:05;;;;;;;7.60;5.10;;;;;;;;;;5011804;28;20427;-69
2023/12/27 09:16:34;;;;;;;8.10;6.00;;;;;;;;;;5010773;28;20431;-70
2023/12/27 09:19:02;;;;;;;10.70;5.90;;;;;;;;;;5010904;28;20428;-70
2023/12/27 09:21:28;;;;;;;10.57;6.27;;;;;;;;;;5012647;28;20415;-69
2023/12/27 09:23:54;;;;;;;5.77;5.00;;;;;;;;;;5012024;28;20431;-69
2023/12/27 09:26:20;;;;;;;10.20;4.77;;;;;;;;;;5012209;28;20751;-69
2023/12/27 09:28:46;;;;;;;7.43;4.60;;;;;;;;;;5012161;28;20423;-69
2023/12/27 09:31:12;;;;;;;8.80;5.30;;;;;;;;;;5011850;28;20577;-70
2023/12/27 09:33:42;;;;;;;6.70;4.93;;;;;;;;;;5011885;28;20463;-70
2023/12/27 09:36:08;;;;;;;5.67;4.50;;;;;;;;;;5011886;28;20442;-70
2023/12/27 09:38:37;;;;;;;9.63;5.43;;;;;;;;;;5011791;28;20423;-70
2023/12/27 09:41:03;;;;;;;10.83;6.20;;;;;;;;;;5010656;28;20978;-70
2023/12/27 09:43:30;;;;;;;6.30;5.50;;;;;;;;;;5011877;28;20435;-70
2023/12/27 09:45:56;;;;;;;6.47;5.50;;;;;;;;;;5011838;28;20451;-70
2023/12/27 09:48:25;;;;;;;9.73;4.93;;;;;;;;;;5011998;28;20421;-70
2023/12/27 09:50:51;;;;;;;5.80;4.63;;;;;;;;;;5011874;28;20426;-69
2023/12/27 09:53:17;;;;;;;10.00;5.47;;;;;;;;;;5012373;28;20958;-69
2023/12/27 09:55:44;;;;;;;7.40;5.60;;;;;;;;;;5002826;28;20435;-68
2023/12/27 09:58:10;;;;;;;6.10;4.37;;;;;;;;;;5015455;28;20422;-69
2023/12/27 10:00:38;;;;;;;6.00;4.30;;;;;;;;;;5031522;28;20410;-69
2023/12/27 10:03:04;;;;;;;6.67;4.93;;;;;;;;;;5023928;28;20423;-69
2023/12/27 10:05:38;;;;;;;10.47;4.73;;;;;;;;;;5012010;28;20455;-71
2023/12/27 10:08:03;;;;;;;12.30;4.50;;;;;;;;;;5011625;28;20945;-67
2023/12/27 10:10:32;;;;;;;5.20;3.47;;;;;;;;;;5011696;28;20415;-68
2023/12/27 10:13:02;;;;;;;6.80;3.40;;;;;;;;;;5011682;28;20494;-68
2023/12/27 10:15:28;;;;;;;13.33;4.80;;;;;;;;;;5011887;28;20463;-69
2023/12/27 10:17:54;;;;;;;9.10;3.80;;;;;;;;;;5011577;28;20419;-69
2023/12/27 10:20:36;;;;;;;4.63;3.93;;;;;;;;;;5011590;28;20411;-69
2023/12/27 10:23:03;;;;;;;5.63;3.40;;;;;;;;;;5011675;28;20429;-69
2023/12/27 10:25:29;;;;;;;6.20;4.20;;;;;;;;;;5011436;28;20511;-69
2023/12/27 10:27:55;;;;;;;5.80;4.10;;;;;;;;;;5014807;28;20421;-69
2023/12/27 10:30:21;;;;;;;6.33;3.70;;;;;;;;;;5000830;28;20449;-69
2023/12/27 10:32:57;;;;;;;7.87;4.60;;;;;;;;;;4999275;28;20467;-68
2023/12/27 10:35:23;;;;;;;6.03;4.40;;;;;;;;;;5009429;28;20453;-69
2023/12/27 10:38:04;;;;;;;7.53;4.17;;;;;;;;;;5006868;28;20445;-68
2023/12/27 10:40:30;;;;;;;5.77;3.60;;;;;;;;;;4994551;28;20454;-70
2023/12/27 10:42:56;;;;;;;7.40;4.20;;;;;;;;;;5006012;28;20421;-68
2023/12/27 10:45:22;;;;;;;5.93;3.30;;;;;;;;;;5015377;28;20424;-68
2023/12/27 10:47:49;;;;;;;5.50;3.87;;;;;;;;;;5014829;28;20823;-69
2023/12/27 10:50:20;;;;;;;6.30;3.50;;;;;;;;;;5015118;28;20516;-70
2023/12/27 10:52:51;;;;;;;4.93;2.77;;;;;;;;;;5001798;28;20482;-71
2023/12/27 10:55:22;;;;;;;6.70;4.07;;;;;;;;;;4997537;28;20415;-71
2023/12/27 10:57:53;;;;;;;10.70;3.43;;;;;;;;;;4998980;28;20419;-71
2023/12/27 11:00:20;;;;;;;4.70;3.70;;;;;;;;;;4996278;28;20403;-71
2023/12/27 11:02:47;;;;;;;6.47;3.47;;;;;;;;;;4995411;28;20426;-70
2023/12/27 11:05:15;;;;;;;8.13;3.77;;;;;;;;;;4995899;28;20529;-72
2023/12/27 11:07:43;;;;;;;5.67;2.70;;;;;;;;;;4995438;28;20998;-71
2023/12/27 11:10:10;;;;;;;3.40;2.90;;;;;;;;;;5026143;28;20427;-71
2023/12/27 11:12:38;;;;;;;6.97;3.07;;;;;;;;;;4995343;28;20562;-71
2023/12/27 11:15:04;;;;;;;5.90;3.50;;;;;;;;;;4995156;28;20419;-71
2023/12/27 11:17:31;;;;;;;7.37;4.00;;;;;;;;;;4995057;28;20422;-71
2023/12/27 11:19:57;;;;;;;13.13;3.53;;;;;;;;;;4995008;28;20786;-71
2023/12/27 11:22:23;;;;;;;7.30;4.90;;;;;;;;;;4995191;28;20426;-70
2023/12/27 11:24:49;;;;;;;7.13;4.27;;;;;;;;;;4995216;28;20418;-70
2023/12/27 11:27:19;;;;;;;5.33;4.73;;;;;;;;;;4994951;28;20465;-71
2023/12/27 11:29:45;;;;;;;5.53;3.40;;;;;;;;;;4995140;28;20450;-71
2023/12/27 11:32:11;;;;;;;5.13;3.73;;;;;;;;;;4995031;28;20467;-70
2023/12/27 11:34:38;;;;;;;7.00;3.77;;;;;;;;;;4995236;28;20902;-70
2023/12/27 11:37:04;;;;;;;9.60;4.13;;;;;;;;;;5026641;28;20444;-72
2023/12/27 11:39:30;;;;;;;5.03;4.20;;;;;;;;;;4993837;28;20470;-71
2023/12/27 11:41:58;;;;;;;4.60;2.90;;;;;;;;;;4995025;28;20764;-71
2023/12/27 11:44:24;;;;;;;4.60;2.90;;;;;;;;;;4994754;28;20412;-71
2023/12/27 11:46:50;;;;;;;4.60;3.73;;;;;;;;;;4994624;28;21013;-72
2023/12/27 11:49:19;;;;;;;5.33;3.57;;;;;;;;;;4994651;28;20416;-72
2023/12/27 11:51:46;;;;;;;5.33;3.30;;;;;;;;;;4994734;28;20413;-71
2023/12/27 11:54:22;;;;;;;4.07;3.30;;;;;;;;;;4994688;28;20489;-71
2023/12/27 11:56:48;;;;;;;8.33;4.20;;;;;;;;;;4994565;28;20428;-71
2023/12/27 11:59:15;;;;;;;7.50;3.40;;;;;;;;;;4994820;28;20936;-71
2023/12/27 12:01:41;;;;;;;6.40;3.30;;;;;;;;;;4993543;28;20419;-70
2023/12/27 12:04:10;;;;;;;10.83;4.53;;;;;;;;;;4996018;28;20423;-72
2023/12/27 12:06:54;;;;;;;4.40;2.77;;;;;;;;;;4995782;28;20451;-71
2023/12/27 12:09:26;;;;;;;7.10;3.80;;;;;;;;;;4994282;28;20412;-71
2023/12/27 12:11:54;;;;;;;5.90;3.43;;;;;;;;;;5025691;28;20867;-70
2023/12/27 12:14:21;;;;;;;4.27;3.03;;;;;;;;;;4994338;28;20448;-72
2023/12/27 12:16:47;;;;;;;4.90;3.03;;;;;;;;;;4994052;28;20490;-72
2023/12/27 12:19:16;;;;;;;4.70;3.10;;;;;;;;;;4994088;28;20622;-72
2023/12/27 12:21:42;;;;;;;6.37;3.77;;;;;;;;;;4994110;28;20408;-72
2023/12/27 12:24:08;;;;;;;4.30;2.83;;;;;;;;;;4994013;28;20436;-72
2023/12/27 12:26:34;;;;;;;6.73;3.50;;;;;;;;;;5025421;28;20443;-72
2023/12/27 12:29:02;;;;;;;4.27;3.63;;;;;;;;;;4993957;28;20465;-72
2023/12/27 12:31:28;;;;;;;4.77;3.30;;;;;;;;;;4993754;28;20899;-72
2023/12/27 12:33:54;;;;;;;5.57;3.13;;;;;;;;;;4994074;28;20464;-72
2023/12/27 12:36:20;;;;;;;8.37;3.37;;;;;;;;;;4993960;28;20433;-70
2023/12/27 12:38:46;;;;;;;7.30;3.50;;;;;;;;;;4993943;28;20411;-73
2023/12/27 12:41:12;;;;;;;6.90;3.73;;;;;;;;;;4993853;28;20421;-72
2023/12/27 12:43:39;;;;;;;6.10;3.70;;;;;;;;;;4993763;28;20412;-71
2023/12/27 12:46:05;;;;;;;5.47;3.70;;;;;;;;;;4992995;28;20442;-71
2023/12/27 12:48:31;;;;;;;3.97;2.90;;;;;;;;;;4994831;28;20437;-74
2023/12/27 12:51:09;;;;;;;6.37;4.40;;;;;;;;;;5024883;28;20420;-69
2023/12/27 12:53:36;;;;;;;5.33;3.53;;;;;;;;;;4993332;28;20540;-68
2023/12/27 12:56:03;;;;;;;5.53;3.73;;;;;;;;;;4993457;28;20539;-68
2023/12/27 12:58:29;;;;;;;5.13;3.90;;;;;;;;;;4993667;28;20413;-74
2023/12/27 13:00:55;;;;;;;7.70;3.93;;;;;;;;;;4993091;28;20398;-74
2023/12/27 13:03:21;;;;;;;5.97;4.00;;;;;;;;;;4996548;28;20415;-70
2023/12/27 13:05:48;;;;;;;8.70;4.30;;;;;;;;;;5016725;23;20465;-70
2023/12/27 13:08:15;;;;;;;6.50;4.80;;;;;;;;;;5013146;28;20478;-70
2023/12/27 13:10:41;;;;;;;7.27;4.87;;;;;;;;;;5012504;28;20408;-71
2023/12/27 13:13:08;;;;;;;7.17;4.00;;;;;;;;;;5012210;28;20456;-70
2023/12/27 13:15:33;;;;;;;5.63;4.40;;;;;;;;;;5010607;28;20521;-70
2023/12/27 13:17:59;;;;;;;8.27;5.97;;;;;;;;;;4992856;28;20768;-70
2023/12/27 13:20:25;;;;;;;7.77;4.67;;;;;;;;;;4991244;28;20469;-70
2023/12/27 13:22:51;;;;;;;8.43;5.93;;;;;;;;;;4991775;28;20520;-70
2023/12/27 13:25:17;;;;;;;9.47;5.30;;;;;;;;;;4991302;28;20428;-71
2023/12/27 13:27:44;;;;;;;7.10;4.53;;;;;;;;;;4992744;28;20444;-70
2023/12/27 13:30:11;;;;;;;8.20;5.10;;;;;;;;;;4992441;28;20461;-70
2023/12/27 13:32:37;;;;;;;8.10;5.93;;;;;;;;;;4992776;28;20925;-71
2023/12/27 13:35:03;;;;;;;10.40;5.70;;;;;;;;;;4992343;28;20443;-70
2023/12/27 13:37:29;;;;;;;6.83;5.13;;;;;;;;;;4992592;28;20463;-71
2023/12/27 13:39:55;;;;;;;5.30;4.00;;;;;;;;;;4992496;28;20425;-70
2023/12/27 13:42:22;;;;;;;6.33;4.03;;;;;;;;;;4978154;28;20421;-70
2023/12/27 13:44:48;;;;;;;6.10;3.47;;;;;;;;;;4988240;28;20913;-70
2023/12/27 13:47:17;;;;;;;7.87;5.37;;;;;;;;;;4991069;28;20454;-71
2023/12/27 13:49:43;;;;;;;6.40;4.07;;;;;;;;;;4990993;28;20841;-71
2023/12/27 13:52:10;;;;;;;6.87;4.07;;;;;;;;;;4990683;28;20993;-71
2023/12/27 13:54:36;;;;;;;9.20;4.17;;;;;;;;;;4992373;28;20420;-71
2023/12/27 13:57:02;;;;;;;6.50;3.87;;;;;;;;;;4992279;28;20428;-71
2023/12/27 13:59:28;;;;;;;6.93;5.27;;;;;;;;;;4992239;28;20437;-71
2023/12/27 14:01:56;;;;;;;7.77;5.27;;;;;;;;;;4991441;28;20419;-71
2023/12/27 14:04:22;;;;;;;11.40;5.73;;;;;;;;;;4992266;28;20501;-71
2023/12/27 14:06:48;;;;;;;10.13;4.77;;;;;;;;;;4992058;28;20612;-70
2023/12/27 14:09:14;;;;;;;7.73;4.40;;;;;;;;;;4991912;28;20424;-71
2023/12/27 14:11:41;;;;;;;6.43;3.97;;;;;;;;;;4991799;28;20566;-71
2023/12/27 14:14:07;;;;;;;7.57;4.40;;;;;;;;;;4991985;28;20499;-71
2023/12/27 14:16:33;;;;;;;8.90;3.93;;;;;;;;;;4991802;28;20888;-72
2023/12/27 14:18:59;;;;;;;5.97;3.90;;;;;;;;;;4983611;28;20518;-70
2023/12/27 14:21:26;;;;;;;7.87;4.00;;;;;;;;;;4987085;28;20574;-70
2023/12/27 14:23:53;;;;;;;6.63;4.00;;;;;;;;;;4987608;28;21005;-69
2023/12/27 14:26:19;;;;;;;5.87;4.30;;;;;;;;;;4986485;28;20456;-69
2023/12/27 14:28:45;;;;;;;7.20;4.83;;;;;;;;;;4988427;28;20438;-72
2023/12/27 14:31:17;;;;;;;7.43;4.30;;;;;;;;;;4986288;28;20541;-69
2023/12/27 14:33:46;;;;;;;8.40;5.03;;;;;;;;;;4990365;28;20795;-71
2023/12/27 14:36:12;;;;;;;6.27;4.90;;;;;;;;;;4991391;28;20439;-69
2023/12/27 14:38:41;;;;;;;12.43;5.13;;;;;;;;;;4987680;28;20417;-69